createdAt,value
2022-12-10T00:01:52.961Z,12.69
2022-12-10T00:04:21.910Z,12.73
2022-12-10T00:06:50.504Z,12.73
2022-12-10T00:09:21.337Z,12.71
2022-12-10T00:11:50.619Z,12.73
2022-12-10T00:14:18.451Z,12.71
2022-12-10T00:16:46.236Z,12.71
2022-12-10T00:19:13.933Z,12.69
2022-12-10T00:21:45.877Z,12.65
2022-12-10T00:24:13.725Z,12.71
2022-12-10T00:26:42.607Z,12.69
2022-12-10T00:29:12.907Z,12.63
2022-12-10T00:31:41.379Z,12.57
2022-12-10T00:34:11.968Z,12.57
2022-12-10T00:36:45.150Z,12.57
2022-12-10T00:39:17.252Z,12.64
2022-12-10T00:41:47.113Z,12.71
2022-12-10T00:44:15.759Z,12.80
2022-12-10T00:46:43.760Z,12.85
2022-12-10T00:49:11.811Z,12.91
2022-12-10T00:51:41.636Z,12.85
2022-12-10T00:54:09.758Z,12.78
2022-12-10T00:56:37.833Z,12.83
2022-12-10T00:59:05.677Z,12.83
2022-12-10T01:01:39.731Z,12.81
2022-12-10T01:04:13.197Z,12.78
2022-12-10T01:06:46.240Z,12.73
2022-12-10T01:09:21.992Z,12.71
2022-12-10T01:11:52.721Z,12.75
2022-12-10T01:14:29.548Z,12.83
2022-12-10T01:17:01.283Z,12.78
2022-12-10T01:19:31.409Z,12.74
2022-12-10T01:22:03.911Z,12.78
2022-12-10T01:24:32.607Z,12.81
2022-12-10T01:27:00.488Z,12.81
2022-12-10T01:29:30.600Z,12.74
2022-12-10T01:31:59.135Z,12.74
2022-12-10T01:34:27.253Z,12.71
2022-12-10T01:36:58.376Z,12.74
2022-12-10T01:39:26.389Z,12.71
2022-12-10T01:42:00.874Z,12.69
2022-12-10T01:44:28.378Z,12.68
2022-12-10T01:47:01.521Z,12.67
2022-12-10T01:49:38.337Z,12.63
2022-12-10T01:52:12.345Z,12.60
2022-12-10T01:54:46.136Z,12.54
2022-12-10T01:57:28.219Z,12.54
2022-12-10T02:00:03.093Z,12.51
2022-12-10T02:02:50.292Z,12.53
2022-12-10T02:05:42.111Z,12.56
2022-12-10T02:08:15.424Z,12.60
2022-12-10T02:11:01.094Z,12.61
2022-12-10T02:14:05.127Z,12.57
2022-12-10T02:16:43.642Z,12.53
2022-12-10T02:19:18.392Z,12.46
2022-12-10T02:21:50.611Z,12.46
2022-12-10T02:24:30.024Z,12.46
2022-12-10T02:27:24.971Z,12.53
2022-12-10T02:29:55.599Z,12.64
2022-12-10T02:32:31.561Z,12.65
2022-12-10T02:35:10.480Z,12.63
2022-12-10T02:37:50.874Z,12.63
2022-12-10T02:40:28.489Z,12.67
2022-12-10T02:42:56.708Z,12.58
2022-12-10T02:45:30.523Z,12.48
2022-12-10T02:48:04.575Z,12.36
2022-12-10T02:50:40.051Z,12.29
2022-12-10T02:53:07.843Z,12.23
2022-12-10T02:56:08.610Z,12.30
2022-12-10T02:58:58.009Z,12.58
2022-12-10T03:01:58.093Z,12.81
2022-12-10T03:05:04.842Z,12.89
2022-12-10T03:07:46.016Z,12.91
2022-12-10T03:10:31.581Z,12.89
2022-12-10T03:13:03.553Z,12.83
2022-12-10T03:15:36.338Z,12.91
2022-12-10T03:18:07.140Z,13.08
2022-12-10T03:20:42.489Z,13.12
2022-12-10T03:23:17.563Z,13.15
2022-12-10T03:25:49.184Z,13.22
2022-12-10T03:28:22.600Z,13.25
2022-12-10T03:30:54.180Z,13.35
2022-12-10T03:33:22.326Z,13.33
2022-12-10T03:35:51.823Z,13.35
2022-12-10T03:38:20.455Z,13.38
2022-12-10T03:40:48.225Z,13.38
2022-12-10T03:43:15.969Z,13.39
2022-12-10T03:45:43.548Z,13.30
2022-12-10T03:48:11.189Z,13.25
2022-12-10T03:50:38.769Z,13.13
2022-12-10T03:53:06.306Z,13.05
2022-12-10T03:55:33.978Z,12.95
2022-12-10T03:58:01.542Z,12.88
2022-12-10T04:00:29.104Z,12.78
2022-12-10T04:02:56.758Z,12.78
2022-12-10T04:05:24.435Z,12.69
2022-12-10T04:07:52.368Z,12.58
2022-12-10T04:10:20.152Z,12.53
2022-12-10T04:13:07.974Z,12.53
2022-12-10T04:15:58.652Z,12.63
2022-12-10T04:18:26.229Z,12.80
2022-12-10T04:21:12.345Z,13.01
2022-12-10T04:23:59.237Z,13.11
2022-12-10T04:26:45.896Z,13.22
2022-12-10T04:29:14.662Z,13.30
2022-12-10T04:31:42.238Z,13.35
2022-12-10T04:34:09.958Z,13.33
2022-12-10T04:36:37.819Z,13.26
2022-12-10T04:39:05.644Z,13.18
2022-12-10T04:41:33.261Z,13.13
2022-12-10T04:44:00.919Z,13.06
2022-12-10T04:46:29.222Z,13.05
2022-12-10T04:48:56.981Z,13.12
2022-12-10T04:51:24.571Z,13.06
2022-12-10T04:53:52.253Z,13.04
2022-12-10T04:56:21.079Z,13.02
2022-12-10T04:58:48.734Z,13.05
2022-12-10T05:01:17.109Z,12.98
2022-12-10T05:03:45.692Z,13.06
2022-12-10T05:06:16.336Z,13.09
2022-12-10T05:08:44.776Z,13.19
2022-12-10T05:11:23.265Z,13.23
2022-12-10T05:13:50.759Z,13.20
2022-12-10T05:16:21.380Z,13.25
2022-12-10T05:18:50.865Z,13.23
2022-12-10T05:21:21.855Z,13.26
2022-12-10T05:23:52.524Z,13.23
2022-12-10T05:26:25.717Z,13.29
2022-12-10T05:28:56.691Z,13.38
2022-12-10T05:31:29.747Z,13.44
2022-12-10T05:33:59.670Z,13.50
2022-12-10T05:36:30.908Z,13.54
2022-12-10T05:39:00.042Z,13.59
2022-12-10T05:41:32.142Z,13.52
2022-12-10T05:44:00.218Z,13.49
2022-12-10T05:46:31.921Z,13.50
2022-12-10T05:49:02.076Z,13.47
2022-12-10T05:51:34.008Z,13.40
2022-12-10T05:54:05.309Z,13.50
2022-12-10T05:56:33.206Z,13.59
2022-12-10T05:59:03.327Z,13.74
2022-12-10T06:01:35.323Z,13.70
2022-12-10T06:04:06.028Z,13.57
2022-12-10T06:06:37.234Z,13.64
2022-12-10T06:09:07.036Z,13.49
2022-12-10T06:11:35.004Z,13.42
2022-12-10T06:14:03.325Z,13.40
2022-12-10T06:16:31.136Z,13.32
2022-12-10T06:18:59.502Z,13.27
2022-12-10T06:21:26.978Z,13.23
2022-12-10T06:23:54.919Z,13.20
2022-12-10T06:26:26.311Z,13.23
2022-12-10T06:28:54.841Z,13.70
2022-12-10T06:31:23.934Z,13.74
2022-12-10T06:33:53.554Z,13.74
2022-12-10T06:36:21.720Z,13.61
2022-12-10T06:38:49.812Z,13.56
2022-12-10T06:41:21.747Z,13.43
2022-12-10T06:43:50.253Z,13.39
2022-12-10T06:46:21.420Z,13.42
2022-12-10T06:48:49.520Z,13.50
2022-12-10T06:51:19.016Z,13.46
2022-12-10T06:53:47.989Z,13.42
2022-12-10T06:56:19.658Z,13.42
2022-12-10T06:58:47.778Z,13.36
2022-12-10T07:01:27.184Z,13.40
2022-12-10T07:03:57.728Z,13.43
2022-12-10T07:06:29.116Z,13.46
2022-12-10T07:08:56.671Z,13.43
2022-12-10T07:11:26.507Z,13.43
2022-12-10T07:13:54.155Z,13.42
2022-12-10T07:16:33.570Z,13.42
2022-12-10T07:19:03.438Z,13.44
2022-12-10T07:21:35.418Z,13.46
2022-12-10T07:24:11.212Z,13.54
2022-12-10T07:26:42.186Z,13.63
2022-12-10T07:29:17.949Z,13.73
2022-12-10T07:31:46.298Z,13.81
2022-12-10T07:34:13.847Z,13.87
2022-12-10T07:36:42.241Z,13.92
2022-12-10T07:39:17.987Z,14.07
2022-12-10T07:41:55.977Z,14.32
2022-12-10T07:44:27.022Z,14.49
2022-12-10T07:46:56.245Z,14.55
2022-12-10T07:49:24.018Z,14.53
2022-12-10T07:51:52.057Z,14.53
2022-12-10T07:54:21.154Z,14.53
2022-12-10T07:56:48.749Z,14.66
2022-12-10T07:59:16.477Z,14.76
2022-12-10T08:01:44.237Z,14.83
2022-12-10T08:04:11.911Z,15.03
2022-12-10T08:06:39.415Z,15.28
2022-12-10T08:09:08.517Z,15.35
2022-12-10T08:11:36.149Z,15.46
2022-12-10T08:14:03.732Z,15.59
2022-12-10T08:16:32.314Z,15.56
2022-12-10T08:19:02.810Z,15.56
2022-12-10T08:21:33.440Z,15.62
2022-12-10T08:24:01.859Z,15.61
2022-12-10T08:26:33.179Z,15.59
2022-12-10T08:29:02.153Z,15.55
2022-12-10T08:31:35.765Z,15.55
2022-12-10T08:34:05.900Z,15.56
2022-12-10T08:36:33.527Z,15.58
2022-12-10T08:39:01.084Z,15.51
2022-12-10T08:41:28.938Z,15.52
2022-12-10T08:43:56.581Z,15.49
2022-12-10T08:46:26.042Z,15.42
2022-12-10T08:48:53.661Z,15.49
2022-12-10T08:51:21.921Z,15.58
2022-12-10T08:53:49.413Z,15.58
2022-12-10T08:56:16.960Z,15.67
2022-12-10T08:58:44.518Z,15.78
2022-12-10T09:01:17.388Z,15.89
2022-12-10T09:03:46.056Z,16.07
2022-12-10T09:06:18.765Z,16.38
2022-12-10T09:08:47.152Z,16.58
2022-12-10T09:11:20.574Z,16.65
2022-12-10T09:13:48.254Z,16.95
2022-12-10T09:16:16.133Z,17.28
2022-12-10T09:18:44.036Z,17.93
2022-12-10T09:21:17.405Z,18.94
2022-12-10T09:23:45.785Z,20.08
2022-12-10T09:26:17.368Z,23.94
2022-12-10T09:28:46.052Z,24.76
2022-12-10T09:31:20.155Z,25.87
2022-12-10T09:33:51.609Z,24.83
2022-12-10T09:36:21.147Z,24.53
2022-12-10T09:38:50.486Z,23.73
2022-12-10T09:41:45.520Z,22.81
2022-12-10T09:44:33.088Z,24.36
2022-12-10T09:47:04.850Z,27.02
2022-12-10T09:49:47.345Z,27.82
2022-12-10T09:52:23.819Z,28.46
2022-12-10T09:55:11.201Z,29.83
2022-12-10T09:57:52.686Z,29.98
2022-12-10T10:00:30.574Z,30.01
2022-12-10T10:03:01.645Z,30.39
2022-12-10T10:05:34.069Z,31.16
2022-12-10T10:08:07.697Z,30.52
2022-12-10T10:10:39.880Z,27.89
2022-12-10T10:13:32.667Z,27.20
2022-12-10T10:16:30.548Z,28.94
2022-12-10T10:19:12.837Z,28.63
2022-12-10T10:21:44.473Z,28.02
2022-12-10T10:24:18.742Z,26.45
2022-12-10T10:26:47.037Z,24.48
2022-12-10T10:29:21.161Z,23.03
2022-12-10T10:32:22.902Z,21.86
2022-12-10T10:34:56.948Z,22.78
2022-12-10T10:37:36.368Z,24.42
2022-12-10T10:40:04.605Z,24.77
2022-12-10T10:42:41.190Z,26.51
2022-12-10T10:45:43.611Z,28.36
2022-12-10T10:48:18.290Z,29.09
2022-12-10T10:51:05.684Z,28.04
2022-12-10T10:53:46.278Z,26.88
2022-12-10T10:56:37.960Z,25.15
2022-12-10T10:59:18.644Z,23.33
2022-12-10T11:01:56.021Z,22.89
2022-12-10T11:04:49.647Z,22.09
2022-12-10T11:07:35.725Z,21.42
2022-12-10T11:10:21.081Z,21.20
2022-12-10T11:13:23.497Z,21.21
2022-12-10T11:16:13.333Z,20.91
2022-12-10T11:18:52.292Z,20.60
2022-12-10T11:21:25.991Z,20.53
2022-12-10T11:23:56.926Z,20.42
2022-12-10T11:27:05.988Z,20.75
2022-12-10T11:29:41.612Z,20.86
2022-12-10T11:32:26.932Z,20.77
2022-12-10T11:35:14.946Z,20.69
2022-12-10T11:38:16.946Z,20.22
2022-12-10T11:41:08.449Z,19.84
2022-12-10T11:44:11.039Z,19.57
2022-12-10T11:47:06.412Z,19.46
2022-12-10T11:49:58.428Z,19.30
2022-12-10T11:53:00.457Z,19.04
2022-12-10T11:55:48.549Z,18.87
2022-12-10T11:58:59.782Z,18.88
2022-12-10T12:01:55.566Z,18.80
2022-12-10T12:04:40.515Z,18.68
2022-12-10T12:07:26.738Z,18.56
2022-12-10T12:10:12.901Z,18.41
2022-12-10T12:13:15.557Z,18.17
2022-12-10T12:16:00.934Z,18.16
2022-12-10T12:18:51.534Z,17.98
2022-12-10T12:21:19.593Z,17.96
2022-12-10T12:24:04.548Z,17.85
2022-12-10T12:26:49.999Z,17.84
2022-12-10T12:29:42.147Z,17.64
2022-12-10T12:32:28.102Z,17.60
2022-12-10T12:35:20.722Z,17.50
2022-12-10T12:38:02.085Z,17.41
2022-12-10T12:40:49.769Z,17.34
2022-12-10T12:43:26.079Z,17.33
2022-12-10T12:45:56.565Z,17.22
2022-12-10T12:48:42.322Z,17.19
2022-12-10T12:51:18.270Z,17.13
2022-12-10T12:53:46.078Z,17.16
2022-12-10T12:56:52.098Z,17.05
2022-12-10T13:00:20.064Z,17.03
2022-12-10T13:03:18.498Z,17.02
2022-12-10T13:05:47.936Z,16.99
2022-12-10T13:08:18.914Z,16.99
2022-12-10T13:11:16.954Z,16.97
2022-12-10T13:14:09.211Z,16.96
2022-12-10T13:16:39.599Z,16.96
2022-12-10T13:19:20.916Z,16.96
2022-12-10T13:22:38.817Z,16.90
2022-12-10T13:25:14.343Z,16.83
2022-12-10T13:27:54.769Z,16.83
2022-12-10T13:30:33.971Z,16.79
2022-12-10T13:33:20.701Z,16.82
2022-12-10T13:36:04.339Z,16.76
2022-12-10T13:39:18.475Z,16.67
2022-12-10T13:42:26.075Z,16.64
2022-12-10T13:45:23.990Z,16.59
2022-12-10T13:48:11.538Z,16.62
2022-12-10T13:51:19.617Z,16.62
2022-12-10T13:54:21.241Z,16.59
2022-12-10T13:57:23.319Z,16.55
2022-12-10T14:00:23.506Z,16.55
2022-12-10T14:03:15.806Z,16.58
2022-12-10T14:05:58.327Z,16.68
2022-12-10T14:08:34.302Z,16.68
2022-12-10T14:11:18.428Z,16.62
2022-12-10T14:13:53.912Z,16.55
2022-12-10T14:16:24.875Z,16.54
2022-12-10T14:19:05.261Z,16.51
2022-12-10T14:21:37.419Z,16.47
2022-12-10T14:24:06.217Z,16.42
2022-12-10T14:26:37.881Z,16.38
2022-12-10T14:29:08.518Z,16.34
2022-12-10T14:31:45.025Z,16.28
2022-12-10T14:34:19.201Z,16.27
2022-12-10T14:36:51.481Z,16.24
2022-12-10T14:39:29.332Z,16.21
2022-12-10T14:42:03.469Z,16.24
2022-12-10T14:44:35.505Z,16.24
2022-12-10T14:47:18.451Z,16.30
2022-12-10T14:49:54.533Z,16.25
2022-12-10T14:52:36.284Z,16.17
2022-12-10T14:55:05.595Z,16.14
2022-12-10T14:57:41.978Z,16.10
2022-12-10T15:00:20.610Z,16.04
2022-12-10T15:03:12.554Z,16.03
2022-12-10T15:05:40.184Z,16.01
2022-12-10T15:08:16.884Z,15.86
2022-12-10T15:10:51.077Z,15.73
2022-12-10T15:13:25.502Z,15.70
2022-12-10T15:15:54.700Z,15.61
2022-12-10T15:18:38.448Z,15.63
2022-12-10T15:21:08.658Z,15.65
2022-12-10T15:23:37.366Z,15.55
2022-12-10T15:26:21.650Z,15.53
2022-12-10T15:28:52.086Z,15.45
2022-12-10T15:31:32.511Z,15.36
2022-12-10T15:34:08.884Z,15.41
2022-12-10T15:36:42.254Z,15.44
2022-12-10T15:39:12.585Z,15.44
2022-12-10T15:41:56.227Z,15.31
2022-12-10T15:44:43.467Z,15.25
2022-12-10T15:47:24.609Z,15.31
2022-12-10T15:49:56.777Z,15.42
2022-12-10T15:52:31.401Z,15.58
2022-12-10T15:55:00.043Z,15.67
2022-12-10T15:57:40.492Z,15.66
2022-12-10T16:00:26.215Z,15.67
2022-12-10T16:03:06.431Z,15.74
2022-12-10T16:05:39.701Z,15.76
2022-12-10T16:08:29.849Z,15.73
2022-12-10T16:11:03.907Z,15.73
2022-12-10T16:13:42.030Z,15.72
2022-12-10T16:16:11.516Z,15.69
2022-12-10T16:18:39.102Z,15.67
2022-12-10T16:21:09.498Z,15.69
2022-12-10T16:23:39.473Z,15.69
2022-12-10T16:26:24.918Z,15.66
2022-12-10T16:28:53.168Z,15.62
2022-12-10T16:31:22.474Z,15.63
2022-12-10T16:33:52.757Z,15.67
2022-12-10T16:36:20.661Z,15.72
2022-12-10T16:38:48.458Z,15.72
2022-12-10T16:41:23.295Z,15.74
2022-12-10T16:43:51.698Z,15.74
2022-12-10T16:46:19.468Z,15.78
2022-12-10T16:48:47.317Z,15.78
2022-12-10T16:51:22.279Z,15.81
2022-12-10T16:53:49.922Z,15.76
2022-12-10T16:56:17.873Z,15.72
2022-12-10T16:58:46.553Z,15.69
2022-12-10T17:01:22.345Z,15.65
2022-12-10T17:03:51.782Z,15.62
2022-12-10T17:06:20.350Z,15.59
2022-12-10T17:08:48.445Z,15.51
2022-12-10T17:11:41.759Z,15.49
2022-12-10T17:14:21.619Z,15.38
2022-12-10T17:16:50.370Z,15.21
2022-12-10T17:19:18.253Z,15.03
2022-12-10T17:21:46.609Z,14.79
2022-12-10T17:24:14.239Z,14.42
2022-12-10T17:26:48.944Z,13.98
2022-12-10T17:29:28.910Z,13.61
2022-12-10T17:31:56.584Z,13.29
2022-12-10T17:34:24.903Z,13.02
2022-12-10T17:36:52.993Z,12.83
2022-12-10T17:39:25.790Z,12.71
2022-12-10T17:41:53.841Z,12.63
2022-12-10T17:44:23.040Z,12.58
2022-12-10T17:46:50.840Z,12.50
2022-12-10T17:49:18.547Z,12.43
2022-12-10T17:51:46.343Z,12.36
2022-12-10T17:54:14.603Z,12.23
2022-12-10T17:56:43.043Z,12.03
2022-12-10T17:59:15.160Z,11.93
2022-12-10T18:01:48.103Z,11.86
2022-12-10T18:04:16.442Z,11.83
2022-12-10T18:06:44.022Z,11.78
2022-12-10T18:09:13.140Z,11.74
2022-12-10T18:11:44.255Z,11.74
2022-12-10T18:14:15.242Z,11.71
2022-12-10T18:16:44.310Z,11.65
2022-12-10T18:19:15.902Z,11.58
2022-12-10T18:21:44.525Z,11.51
2022-12-10T18:24:13.408Z,11.45
2022-12-10T18:26:44.642Z,11.35
2022-12-10T18:29:15.850Z,11.28
2022-12-10T18:31:45.004Z,11.23
2022-12-10T18:34:16.062Z,11.16
2022-12-10T18:36:47.777Z,11.10
2022-12-10T18:39:22.821Z,11.00
2022-12-10T18:41:52.300Z,10.89
2022-12-10T18:44:25.080Z,10.82
2022-12-10T18:46:56.517Z,10.77
2022-12-10T18:49:25.562Z,10.71
2022-12-10T18:51:53.161Z,10.64
2022-12-10T18:54:20.936Z,10.56
2022-12-10T18:57:32.362Z,10.48
2022-12-10T18:59:36.149Z,10.40
2022-12-10T19:02:04.050Z,10.31
2022-12-10T19:04:31.635Z,10.25
2022-12-10T19:06:59.560Z,10.20
2022-12-10T19:09:32.331Z,10.13
2022-12-10T19:12:00.481Z,10.10
2022-12-10T19:14:28.073Z,10.01
2022-12-10T19:16:55.644Z,10.01
2022-12-10T19:19:23.150Z,9.94
2022-12-10T19:21:50.743Z,9.91
2022-12-10T19:24:18.537Z,9.91
2022-12-10T19:26:47.474Z,9.89
2022-12-10T19:29:19.634Z,9.91
2022-12-10T19:31:48.954Z,9.87
2022-12-10T19:34:19.503Z,9.83
2022-12-10T19:36:52.470Z,9.80
2022-12-10T19:39:26.047Z,9.80
2022-12-10T19:41:55.391Z,9.76
2022-12-10T19:44:23.161Z,9.72
2022-12-10T19:46:51.537Z,9.68
2022-12-10T19:49:19.914Z,9.58
2022-12-10T19:51:47.731Z,9.51
2022-12-10T19:54:15.677Z,9.42
2022-12-10T19:56:44.233Z,9.35
2022-12-10T19:59:18.443Z,9.27
2022-12-10T20:01:47.146Z,9.20
2022-12-10T20:04:17.551Z,9.11
2022-12-10T20:06:49.011Z,9.04
2022-12-10T20:09:28.720Z,8.97
2022-12-10T20:11:57.062Z,9.01
2022-12-10T20:14:25.120Z,8.94
2022-12-10T20:16:53.809Z,8.88
2022-12-10T20:19:24.688Z,8.91
2022-12-10T20:21:53.272Z,8.85
2022-12-10T20:24:20.998Z,8.80
2022-12-10T20:26:50.022Z,8.74
2022-12-10T20:29:22.783Z,8.63
2022-12-10T20:31:54.747Z,8.50
2022-12-10T20:34:24.926Z,8.41
2022-12-10T20:36:53.255Z,8.35
2022-12-10T20:39:26.150Z,8.31
2022-12-10T20:41:55.516Z,8.26
2022-12-10T20:44:24.400Z,8.16
2022-12-10T20:46:54.285Z,8.14
2022-12-10T20:49:24.792Z,8.04
2022-12-10T20:51:52.631Z,7.90
2022-12-10T20:54:20.437Z,7.87
2022-12-10T20:56:48.088Z,7.81
2022-12-10T20:59:17.533Z,7.76
2022-12-10T21:01:45.428Z,7.70
2022-12-10T21:04:13.342Z,7.65
2022-12-10T21:06:43.991Z,7.56
2022-12-10T21:09:13.847Z,7.57
2022-12-10T21:11:41.405Z,7.49
2022-12-10T21:14:18.417Z,7.50
2022-12-10T21:16:58.620Z,7.46
2022-12-10T21:19:27.880Z,7.42
2022-12-10T21:21:56.096Z,7.36
2022-12-10T21:24:23.653Z,7.29
2022-12-10T21:26:51.181Z,7.20
2022-12-10T21:29:18.895Z,7.07
2022-12-10T21:31:46.919Z,6.99
2022-12-10T21:34:14.468Z,6.95
2022-12-10T21:36:42.099Z,6.91
2022-12-10T21:39:09.739Z,6.81
2022-12-10T21:41:56.151Z,6.77
2022-12-10T21:44:23.749Z,6.71
2022-12-10T21:46:51.486Z,6.61
2022-12-10T21:49:19.226Z,6.56
2022-12-10T21:51:46.829Z,6.54
2022-12-10T21:54:14.337Z,6.43
2022-12-10T21:56:41.912Z,6.36
2022-12-10T21:59:09.474Z,6.28
2022-12-10T22:01:37.101Z,6.15
2022-12-10T22:04:05.119Z,6.06
2022-12-10T22:06:32.690Z,5.92
2022-12-10T22:09:00.278Z,5.82
2022-12-10T22:11:28.752Z,5.78
2022-12-10T22:13:56.362Z,5.73
2022-12-10T22:16:24.255Z,5.60
2022-12-10T22:18:51.795Z,5.50
2022-12-10T22:21:23.496Z,5.40
2022-12-10T22:23:53.102Z,5.33
2022-12-10T22:26:22.862Z,5.29
2022-12-10T22:28:51.304Z,5.22
2022-12-10T22:31:19.945Z,5.19
2022-12-10T22:33:47.593Z,5.18
2022-12-10T22:36:15.158Z,5.08
2022-12-10T22:38:42.788Z,5.06
2022-12-10T22:41:10.414Z,5.04
2022-12-10T22:43:53.285Z,5.00
2022-12-10T22:46:21.628Z,5.04
2022-12-10T22:48:49.407Z,5.00
2022-12-10T22:51:17.557Z,4.96
2022-12-10T22:53:46.120Z,4.95
2022-12-10T22:56:16.266Z,4.93
2022-12-10T22:58:44.289Z,4.96
2022-12-10T23:01:18.011Z,4.98
2022-12-10T23:03:46.346Z,4.96
2022-12-10T23:06:13.911Z,4.91
2022-12-10T23:08:41.536Z,4.88
2022-12-10T23:11:12.207Z,4.85
2022-12-10T23:13:40.913Z,4.78
2022-12-10T23:16:14.251Z,4.71
2022-12-10T23:18:43.983Z,4.67
2022-12-10T23:21:25.575Z,4.60
2022-12-10T23:23:54.608Z,4.56
2022-12-10T23:26:22.540Z,4.53
2022-12-10T23:28:50.429Z,4.53
2022-12-10T23:31:18.731Z,4.53
2022-12-10T23:33:46.897Z,4.47
2022-12-10T23:36:14.418Z,4.46
2022-12-10T23:38:42.147Z,4.48
2022-12-10T23:41:12.235Z,4.43
2022-12-10T23:43:43.235Z,4.41
2022-12-10T23:46:11.493Z,4.44
2022-12-10T23:48:39.263Z,4.38
2022-12-10T23:51:07.263Z,4.37
2022-12-10T23:53:36.025Z,4.34
2022-12-10T23:56:16.652Z,4.32
2022-12-10T23:58:46.048Z,4.34
